Time;durP1;ratioP1;P1;durP2;ratioP2;P2;SDS_P1;SDS_P2;PMS_P1;PMS_P2;Temp;Humidity;BMP_temperature;BMP_pressure;BME280_temperature;BME280_humidity;BME280_pressure;Samples;Min_cycle;Max_cycle;Signal;HPM_P1;HPM_P2
2022/10/26 00:02:00;;;;;;;4.30;1.40;;;19.20;62.40;;;;;;6109777;29;20138;-78
2022/10/26 00:05:00;;;;;;;9.02;1.63;;;19.20;63.30;;;;;;6091048;29;20046;-79
2022/10/26 00:08:02;;;;;;;2.80;1.67;;;19.20;62.60;;;;;;6099169;29;20365;-78
2022/10/26 00:11:03;;;;;;;7.05;1.45;;;19.20;62.70;;;;;;6103151;29;20449;-78
2022/10/26 00:14:04;;;;;;;4.68;1.70;;;19.20;62.80;;;;;;6095888;29;20043;-78
2022/10/26 00:17:05;;;;;;;6.32;1.90;;;19.20;62.80;;;;;;6110529;29;20501;-80
2022/10/26 00:20:06;;;;;;;3.65;1.60;;;19.20;62.80;;;;;;6079703;29;20051;-80
2022/10/26 00:23:07;;;;;;;3.17;1.80;;;19.20;62.80;;;;;;6119325;29;20044;-78
2022/10/26 00:26:09;;;;;;;3.30;1.67;;;19.20;62.90;;;;;;6084749;29;20043;-78
2022/10/26 00:29:12;;;;;;;5.68;1.88;;;19.20;62.90;;;;;;6099569;29;20056;-79
2022/10/26 00:32:13;;;;;;;10.55;1.77;;;19.20;63.00;;;;;;6103369;29;20062;-78
2022/10/26 00:35:14;;;;;;;3.88;1.77;;;19.20;63.00;;;;;;6100838;29;20040;-78
2022/10/26 00:38:15;;;;;;;4.80;1.85;;;19.20;63.00;;;;;;6100960;29;20032;-79
2022/10/26 00:41:23;;;;;;;6.05;1.70;;;19.20;63.10;;;;;;6101339;29;20517;-78
2022/10/26 00:44:45;;;;;;;5.47;1.70;;;19.20;63.00;;;;;;6091373;29;20035;-79
2022/10/26 00:48:08;;;;;;;4.70;1.50;;;19.30;63.00;;;;;;6105555;29;20183;-79
2022/10/26 00:51:25;;;;;;;2.25;1.60;;;19.30;62.80;;;;;;6098712;29;20469;-78
2022/10/26 00:54:28;;;;;;;13.45;1.73;;;19.30;62.70;;;;;;6094554;29;20046;-77
2022/10/26 00:57:29;;;;;;;7.95;1.80;;;19.40;62.70;;;;;;6100423;29;20095;-78
2022/10/26 01:00:29;;;;;;;9.93;2.08;;;19.30;62.70;;;;;;6088981;29;20068;-78
2022/10/26 01:03:31;;;;;;;5.25;2.00;;;19.30;62.80;;;;;;6096099;29;20497;-78
2022/10/26 01:06:35;;;;;;;6.15;1.88;;;19.30;63.00;;;;;;6101178;29;20106;-78
2022/10/26 01:09:36;;;;;;;7.78;1.92;;;19.30;63.10;;;;;;6095962;29;20087;-78
2022/10/26 01:12:37;;;;;;;6.03;2.47;;;19.20;63.30;;;;;;6102032;29;20438;-78
2022/10/26 01:15:46;;;;;;;7.70;2.20;;;19.30;63.50;;;;;;6097016;29;20450;-78
2022/10/26 01:18:59;;;;;;;10.02;2.75;;;19.20;63.70;;;;;;6095047;29;20044;-78
2022/10/26 01:22:15;;;;;;;11.90;3.13;;;19.30;63.90;;;;;;6094317;29;20044;-79
2022/10/26 01:25:33;;;;;;;14.25;3.45;;;19.30;64.10;;;;;;6097488;29;20457;-78
2022/10/26 01:28:58;;;;;;;13.52;4.43;;;19.30;65.10;;;;;;6094375;29;20152;-78
2022/10/26 01:32:24;;;;;;;20.30;5.28;;;19.40;65.80;;;;;;6097114;29;20080;-78
2022/10/26 01:36:01;;;;;;;16.23;4.80;;;19.40;66.90;;;;;;6067525;29;20115;-77
2022/10/26 01:39:18;;;;;;;12.30;4.25;;;19.60;67.80;;;;;;6096774;29;20047;-77
2022/10/26 01:42:22;;;;;;;14.65;5.25;;;19.90;67.60;;;;;;6084818;29;20044;-78
2022/10/26 01:45:24;;;;;;;16.23;4.13;;;20.10;67.40;;;;;;6090726;29;20054;-79
2022/10/26 01:48:28;;;;;;;13.60;2.40;;;20.30;66.90;;;;;;6099060;29;20032;-78
2022/10/26 01:51:30;;;;;;;3.35;1.95;;;20.50;65.20;;;;;;6102924;29;20028;-78
2022/10/26 01:54:35;;;;;;;11.82;2.38;;;20.50;63.10;;;;;;6090793;29;20749;-77
2022/10/26 01:57:37;;;;;;;6.43;2.03;;;20.50;62.50;;;;;;6095406;29;20035;-77
2022/10/26 02:00:45;;;;;;;8.43;2.38;;;20.50;62.00;;;;;;6115305;29;20104;-78
2022/10/26 02:04:28;;;;;;;6.07;1.63;;;20.40;61.40;;;;;;6112693;29;20055;-79
2022/10/26 02:07:51;;;;;;;6.82;2.25;;;20.30;61.30;;;;;;6106965;29;20036;-78
2022/10/26 02:11:19;;;;;;;6.25;2.00;;;20.30;61.20;;;;;;6113233;29;20064;-78
2022/10/26 02:14:20;;;;;;;7.07;1.60;;;20.20;61.10;;;;;;6127610;29;20032;-78
2022/10/26 02:17:30;;;;;;;5.63;1.63;;;20.20;60.80;;;;;;6127766;29;20028;-77
2022/10/26 02:20:34;;;;;;;8.73;1.92;;;20.20;60.50;;;;;;6103115;29;20051;-79
2022/10/26 02:23:40;;;;;;;5.28;1.63;;;20.20;60.00;;;;;;6085062;29;20058;-78
2022/10/26 02:26:44;;;;;;;3.03;1.50;;;20.10;59.80;;;;;;6107174;29;20036;-78
2022/10/26 02:29:48;;;;;;;4.20;1.58;;;20.00;59.70;;;;;;6106280;29;20125;-78
2022/10/26 02:32:52;;;;;;;4.90;1.65;;;20.00;59.80;;;;;;6105502;29;20048;-78
2022/10/26 02:35:56;;;;;;;5.32;1.60;;;19.90;59.90;;;;;;6119573;29;20040;-78
2022/10/26 02:38:59;;;;;;;6.78;1.30;;;19.90;59.90;;;;;;6100917;29;20443;-77
2022/10/26 02:42:04;;;;;;;2.47;1.48;;;19.90;59.90;;;;;;6106135;29;20454;-77
2022/10/26 02:45:09;;;;;;;8.82;1.80;;;19.80;59.80;;;;;;6107556;29;20040;-77
2022/10/26 02:48:09;;;;;;;7.68;1.40;;;19.70;59.90;;;;;;6121540;29;20520;-78
2022/10/26 02:51:12;;;;;;;5.80;1.58;;;19.60;60.10;;;;;;6113277;28;20039;-78
2022/10/26 02:54:20;;;;;;;7.70;1.40;;;19.60;60.30;;;;;;6097928;29;20032;-78
2022/10/26 02:57:28;;;;;;;7.20;1.45;;;19.50;60.40;;;;;;6098796;29;20032;-77
2022/10/26 03:00:29;;;;;;;5.50;2.10;;;19.40;60.50;;;;;;6103067;29;20138;-78
2022/10/26 03:03:30;;;;;;;3.67;1.77;;;19.30;60.70;;;;;;6106412;29;20044;-78
2022/10/26 03:06:31;;;;;;;7.75;1.63;;;19.30;61.00;;;;;;6122812;29;20469;-77
2022/10/26 03:09:32;;;;;;;14.07;1.95;;;19.20;61.30;;;;;;6111749;29;20450;-82
2022/10/26 03:12:33;;;;;;;12.75;2.08;;;19.20;61.60;;;;;;6110447;29;20028;-78
2022/10/26 03:15:34;;;;;;;11.43;1.63;;;19.10;61.70;;;;;;6103047;29;20119;-79
2022/10/26 03:18:35;;;;;;;3.92;1.77;;;19.10;61.70;;;;;;6099796;29;20054;-79
2022/10/26 03:21:36;;;;;;;3.30;1.70;;;19.10;61.70;;;;;;6093208;29;20343;-78
2022/10/26 03:24:37;;;;;;;3.33;1.38;;;19.10;61.70;;;;;;6106140;29;20036;-78
2022/10/26 03:27:37;;;;;;;8.25;1.63;;;19.10;61.80;;;;;;6105520;29;20458;-78
2022/10/26 03:30:38;;;;;;;5.88;1.38;;;19.10;61.70;;;;;;6094365;29;20051;-78
2022/10/26 03:33:39;;;;;;;7.30;1.90;;;19.10;61.70;;;;;;6109208;29;20063;-79
2022/10/26 03:36:40;;;;;;;5.20;1.80;;;19.10;61.70;;;;;;6104968;29;20064;-79
2022/10/26 03:39:41;;;;;;;10.32;2.00;;;19.10;62.00;;;;;;6096607;29;20403;-79
2022/10/26 03:42:42;;;;;;;4.75;2.03;;;19.10;61.90;;;;;;6104980;29;20040;-77
2022/10/26 03:45:42;;;;;;;5.88;1.55;;;19.20;61.90;;;;;;6106589;29;20096;-78
2022/10/26 03:48:43;;;;;;;10.70;2.17;;;19.20;61.80;;;;;;6097483;29;20062;-78
2022/10/26 03:51:44;;;;;;;6.10;1.60;;;19.20;61.80;;;;;;6102706;29;20036;-78
2022/10/26 03:54:45;;;;;;;5.90;2.38;;;19.30;61.80;;;;;;6103799;29;20088;-78
2022/10/26 03:57:46;;;;;;;9.50;2.28;;;19.30;61.80;;;;;;6102268;29;20036;-79
2022/10/26 04:00:47;;;;;;;14.05;2.58;;;19.30;61.60;;;;;;6093218;29;20173;-78
2022/10/26 04:03:48;;;;;;;10.02;2.13;;;19.30;61.70;;;;;;6116515;29;20036;-77
2022/10/26 04:06:48;;;;;;;6.50;2.30;;;19.30;61.60;;;;;;6104985;29;20064;-78
2022/10/26 04:09:49;;;;;;;6.35;2.67;;;19.30;61.60;;;;;;6103761;29;20047;-78
2022/10/26 04:12:51;;;;;;;7.30;1.80;;;19.30;61.70;;;;;;6090713;29;20092;-78
2022/10/26 04:15:51;;;;;;;5.60;2.13;;;19.20;61.80;;;;;;6104662;29;20389;-78
2022/10/26 04:18:52;;;;;;;8.90;2.67;;;19.20;61.80;;;;;;6103111;29;20148;-78
2022/10/26 04:21:53;;;;;;;13.95;2.70;;;19.20;62.10;;;;;;6094920;29;20407;-77
2022/10/26 04:24:54;;;;;;;4.43;1.80;;;19.10;62.10;;;;;;6103756;29;20036;-78
2022/10/26 04:27:55;;;;;;;2.97;1.60;;;19.10;62.30;;;;;;6106607;29;20039;-78
2022/10/26 04:30:56;;;;;;;7.65;1.90;;;19.00;62.50;;;;;;6103199;29;20526;-78
2022/10/26 04:33:57;;;;;;;8.45;1.98;;;19.00;63.50;;;;;;6103304;29;20415;-78
2022/10/26 04:36:57;;;;;;;3.55;2.03;;;18.90;62.80;;;;;;6096320;29;20386;-79
2022/10/26 04:39:58;;;;;;;5.72;2.00;;;18.90;62.90;;;;;;6109178;29;20368;-77
2022/10/26 04:42:59;;;;;;;14.10;2.38;;;18.90;63.00;;;;;;6106744;29;20040;-78
2022/10/26 04:46:00;;;;;;;12.90;2.17;;;18.90;62.90;;;;;;6100462;29;20051;-78
2022/10/26 04:49:01;;;;;;;11.52;2.17;;;18.90;63.00;;;;;;6093416;29;20040;-78
2022/10/26 04:52:02;;;;;;;7.25;2.60;;;18.90;63.00;;;;;;6100066;29;20028;-79
2022/10/26 04:55:05;;;;;;;10.07;2.65;;;18.90;63.10;;;;;;6092943;29;20037;-78
2022/10/26 04:58:06;;;;;;;3.92;2.30;;;18.90;63.10;;;;;;6101990;29;20032;-77
2022/10/26 05:01:06;;;;;;;5.93;2.03;;;18.90;63.20;;;;;;6101101;29;20047;-78
2022/10/26 05:04:07;;;;;;;10.93;2.20;;;18.90;63.30;;;;;;6102092;29;20032;-78
2022/10/26 05:07:08;;;;;;;7.28;2.05;;;18.90;63.40;;;;;;6101477;29;20054;-78
2022/10/26 05:10:09;;;;;;;10.40;2.00;;;18.90;63.40;;;;;;6103016;29;20123;-78
2022/10/26 05:13:10;;;;;;;4.03;2.15;;;18.90;63.40;;;;;;6101572;29;20029;-78
2022/10/26 05:16:11;;;;;;;11.18;2.65;;;18.90;63.40;;;;;;6091420;29;20033;-78
2022/10/26 05:19:12;;;;;;;5.10;2.35;;;18.90;63.30;;;;;;6115165;29;20044;-78
2022/10/26 05:22:13;;;;;;;5.43;2.50;;;18.90;63.30;;;;;;6079711;29;20370;-77
2022/10/26 05:25:14;;;;;;;4.78;2.17;;;18.80;63.30;;;;;;6102773;29;20120;-79
2022/10/26 05:28:17;;;;;;;15.82;2.65;;;18.80;63.50;;;;;;6108842;29;20466;-78
2022/10/26 05:31:19;;;;;;;12.82;2.97;;;18.80;63.70;;;;;;6113936;29;20036;-78
2022/10/26 05:34:20;;;;;;;5.80;2.20;;;18.70;63.80;;;;;;6097524;29;20066;-77
2022/10/26 05:37:20;;;;;;;11.65;2.65;;;18.70;64.00;;;;;;6102513;29;20457;-77
2022/10/26 05:40:22;;;;;;;13.73;2.72;;;18.60;64.10;;;;;;6099079;29;20108;-79
2022/10/26 05:43:23;;;;;;;8.57;2.47;;;18.60;64.40;;;;;;6096014;29;20049;-79
2022/10/26 05:46:24;;;;;;;9.50;2.83;;;18.50;64.60;;;;;;6099717;29;20032;-78
2022/10/26 05:49:25;;;;;;;4.65;2.28;;;18.50;64.80;;;;;;6099616;29;20182;-78
2022/10/26 05:52:25;;;;;;;5.97;2.33;;;18.40;65.00;;;;;;6097564;29;20039;-78
2022/10/26 05:55:27;;;;;;;10.73;2.15;;;18.40;65.20;;;;;;6104915;29;20491;-77
2022/10/26 05:58:28;;;;;;;8.85;2.63;;;18.40;65.40;;;;;;6082973;29;20024;-78
2022/10/26 06:02:00;;;;;;;6.03;2.28;;;18.30;65.50;;;;;;6087772;29;20040;-78
2022/10/26 06:05:05;;;;;;;7.30;2.42;;;18.30;65.70;;;;;;6116124;29;20044;-79
2022/10/26 06:08:10;;;;;;;6.78;2.75;;;18.30;65.80;;;;;;6107978;29;20043;-78
2022/10/26 06:11:11;;;;;;;4.95;2.28;;;18.20;65.80;;;;;;6108453;29;20042;-78
2022/10/26 06:14:12;;;;;;;11.70;2.97;;;18.20;65.90;;;;;;6095734;29;20361;-78
2022/10/26 06:17:52;;;;;;;11.70;4.78;;;18.20;66.00;;;;;;6098786;29;20052;-78
2022/10/26 06:21:01;;;;;;;;;;;18.20;66.10;;;;;;6097037;29;20445;-78
2022/10/26 06:24:32;;;;;;;7.63;2.20;;;18.20;66.10;;;;;;6092660;29;20005;-78
2022/10/26 06:27:33;;;;;;;14.52;3.20;;;18.20;66.10;;;;;;5964195;29;20038;-79
2022/10/26 06:30:33;;;;;;;8.20;3.00;;;18.10;66.20;;;;;;5981382;29;20121;-78
2022/10/26 06:33:34;;;;;;;13.50;2.63;;;18.20;66.30;;;;;;5988404;29;20060;-78
2022/10/26 06:36:37;;;;;;;8.48;3.08;;;18.10;66.40;;;;;;5993252;29;20058;-78
2022/10/26 06:39:45;;;;;;;10.07;2.90;;;18.20;66.50;;;;;;5993240;29;20034;-78
2022/10/26 06:42:46;;;;;;;28.77;3.55;;;18.20;66.60;;;;;;5992871;29;20041;-79
2022/10/26 06:46:10;;;;;;;9.82;2.78;;;18.30;66.50;;;;;;5962746;29;20114;-79
2022/10/26 06:49:26;;;;;;;14.15;3.72;;;18.30;66.30;;;;;;5974749;29;20038;-77
2022/10/26 06:52:54;;;;;;;12.20;2.88;;;18.30;66.20;;;;;;5994781;29;20034;-79
2022/10/26 06:55:57;;;;;;;8.93;2.80;;;18.30;66.10;;;;;;5985102;29;20031;-78
2022/10/26 06:59:07;;;;;;;11.10;3.35;;;18.30;66.10;;;;;;5978182;29;20113;-78
2022/10/26 07:02:10;;;;;;;11.00;3.03;;;18.20;66.10;;;;;;5991455;29;20046;-78
2022/10/26 07:05:14;;;;;;;7.82;2.85;;;18.30;66.20;;;;;;6080099;29;20335;-78
2022/10/26 07:08:21;;;;;;;12.32;2.70;;;18.30;66.10;;;;;;6094643;29;20455;-78
2022/10/26 07:11:22;;;;;;;19.75;3.47;;;18.30;66.00;;;;;;6110345;29;20111;-78
2022/10/26 07:14:22;;;;;;;11.15;2.97;;;18.30;66.00;;;;;;6094062;29;20044;-78
2022/10/26 07:17:26;;;;;;;11.13;2.67;;;18.30;66.00;;;;;;6110841;29;20032;-79
2022/10/26 07:20:26;;;;;;;13.57;3.00;;;18.30;66.40;;;;;;6102186;29;20055;-78
2022/10/26 07:23:27;;;;;;;11.73;2.40;;;18.30;66.00;;;;;;6104040;29;20123;-79
2022/10/26 07:26:28;;;;;;;7.53;2.38;;;18.40;66.00;;;;;;6102316;29;20148;-79
2022/10/26 07:29:29;;;;;;;14.07;2.97;;;18.40;66.00;;;;;;6103766;29;20040;-78
2022/10/26 07:32:30;;;;;;;4.55;2.35;;;18.40;65.90;;;;;;6102523;29;20461;-79
2022/10/26 07:35:32;;;;;;;7.53;2.95;;;18.50;65.90;;;;;;6099955;29;20541;-78
2022/10/26 07:38:33;;;;;;;14.02;2.65;;;18.50;65.90;;;;;;6102020;29;20036;-78
2022/10/26 07:41:35;;;;;;;24.35;2.95;;;18.50;65.70;;;;;;6101301;29;20369;-77
2022/10/26 07:44:35;;;;;;;10.75;2.60;;;18.60;65.70;;;;;;6100044;29;20028;-76
2022/10/26 07:47:36;;;;;;;11.23;3.00;;;18.60;65.70;;;;;;6097054;29;20091;-76
2022/10/26 07:50:37;;;;;;;6.25;3.03;;;18.70;66.40;;;;;;6086219;29;20036;-76
2022/10/26 07:53:38;;;;;;;14.68;2.92;;;18.70;65.40;;;;;;6116630;29;20032;-77
2022/10/26 07:56:39;;;;;;;6.72;2.83;;;18.80;65.40;;;;;;6102134;29;20399;-78
2022/10/26 07:59:40;;;;;;;14.27;3.10;;;18.90;65.30;;;;;;6103552;29;20417;-77
2022/10/26 08:02:41;;;;;;;12.15;3.28;;;18.90;65.00;;;;;;6101671;29;20056;-76
2022/10/26 08:05:42;;;;;;;11.45;2.42;;;19.00;64.90;;;;;;6107946;29;20032;-76
2022/10/26 08:08:42;;;;;;;14.80;3.40;;;19.10;64.80;;;;;;6097967;29;20047;-76
2022/10/26 08:11:43;;;;;;;12.57;3.20;;;19.20;64.70;;;;;;6098510;29;20048;-75
2022/10/26 08:14:45;;;;;;;8.93;3.20;;;19.30;64.60;;;;;;6094798;29;20048;-77
2022/10/26 08:17:45;;;;;;;9.32;3.80;;;19.40;64.20;;;;;;6095171;29;20044;-78
2022/10/26 08:20:47;;;;;;;16.55;4.07;;;19.50;64.00;;;;;;6092482;29;20055;-76
2022/10/26 08:23:47;;;;;;;9.95;3.80;;;19.50;63.90;;;;;;6100353;29;20107;-77
2022/10/26 08:26:48;;;;;;;11.52;3.53;;;19.60;63.60;;;;;;6101943;29;20966;-77
2022/10/26 08:29:49;;;;;;;6.18;3.05;;;19.70;64.00;;;;;;6113669;29;20104;-78
2022/10/26 08:33:00;;;;;;;11.82;3.95;;;19.80;63.20;;;;;;6107741;29;20032;-79
2022/10/26 08:36:04;;;;;;;12.07;3.88;;;19.90;63.10;;;;;;6099649;29;20111;-77
2022/10/26 08:39:05;;;;;;;16.05;3.72;;;20.00;62.90;;;;;;6098417;29;20033;-77
2022/10/26 08:42:17;;;;;;;7.90;3.33;;;20.10;62.70;;;;;;6099261;29;20433;-76
2022/10/26 08:45:37;;;;;;;10.05;3.72;;;20.20;62.50;;;;;;6113834;29;20127;-78
2022/10/26 08:48:44;;;;;;;11.70;3.42;;;20.30;62.30;;;;;;6110195;29;20047;-77
2022/10/26 08:51:51;;;;;;;23.75;3.95;;;20.40;62.00;;;;;;6098687;29;20055;-74
2022/10/26 08:54:56;;;;;;;21.60;4.15;;;20.50;61.80;;;;;;6099455;29;20529;-76
2022/10/26 08:58:00;;;;;;;11.63;4.20;;;20.70;61.70;;;;;;6113403;29;20028;-77
2022/10/26 09:01:02;;;;;;;6.22;3.08;;;20.70;61.30;;;;;;6109053;29;20166;-78
2022/10/26 09:04:08;;;;;;;11.77;3.50;;;20.90;60.90;;;;;;6112101;29;20478;-77
2022/10/26 09:07:35;;;;;;;16.88;4.10;;;21.00;60.70;;;;;;6100718;29;20056;-77
2022/10/26 09:11:07;;;;;;;10.32;3.00;;;21.00;60.30;;;;;;6094225;29;20040;-76
2022/10/26 09:14:24;;;;;;;8.85;4.45;;;21.10;60.10;;;;;;6071465;29;20031;-79
2022/10/26 09:17:38;;;;;;;10.07;2.92;;;21.20;59.80;;;;;;6099623;29;20055;-77
2022/10/26 09:20:50;;;;;;;7.75;3.50;;;21.30;59.50;;;;;;6084922;29;20350;-77
2022/10/26 09:24:05;;;;;;;17.88;3.33;;;21.40;59.40;;;;;;6086414;29;20410;-77
2022/10/26 09:27:27;;;;;;;9.60;3.88;;;21.50;59.10;;;;;;6089514;29;20036;-77
2022/10/26 09:30:29;;;;;;;13.30;3.92;;;21.50;58.90;;;;;;6099499;29;20036;-77
2022/10/26 09:33:35;;;;;;;5.60;3.22;;;21.60;58.60;;;;;;6097639;29;20653;-76
2022/10/26 09:36:36;;;;;;;8.77;2.85;;;21.70;58.30;;;;;;6072995;29;20366;-76
2022/10/26 09:40:12;;;;;;;8.32;2.88;;;21.70;58.10;;;;;;6077578;29;20032;-77
2022/10/26 09:43:32;;;;;;;7.30;2.90;;;21.80;58.00;;;;;;6012030;29;20029;-77
2022/10/26 09:46:54;;;;;;;7.97;3.20;;;21.90;57.50;;;;;;5980196;29;20161;-77
2022/10/26 09:50:06;;;;;;;20.58;2.83;;;21.90;57.80;;;;;;5992710;29;20045;-77
2022/10/26 09:53:06;;;;;;;10.68;2.85;;;22.10;56.80;;;;;;5975108;29;20464;-77
2022/10/26 09:56:12;;;;;;;11.85;3.25;;;22.10;56.40;;;;;;6018978;29;20056;-77
2022/10/26 09:59:16;;;;;;;10.48;3.17;;;22.20;56.40;;;;;;5981551;29;20452;-77
2022/10/26 10:02:44;;;;;;;18.00;3.40;;;22.50;55.80;;;;;;5996952;29;20141;-77
2022/10/26 10:05:45;;;;;;;17.50;3.38;;;22.70;55.10;;;;;;6016576;29;20034;-77
2022/10/26 10:09:23;;;;;;;6.90;2.80;;;23.00;54.60;;;;;;6002748;29;20120;-77
2022/10/26 10:12:24;;;;;;;19.20;3.83;;;23.30;54.50;;;;;;5976364;29;20124;-77
2022/10/26 10:15:25;;;;;;;15.38;3.50;;;23.60;53.80;;;;;;6004551;29;20034;-77
2022/10/26 10:18:26;;;;;;;10.80;3.47;;;23.80;53.60;;;;;;6027253;29;20039;-78
2022/10/26 10:21:37;;;;;;;16.60;3.67;;;23.90;52.90;;;;;;6103817;29;20043;-78
2022/10/26 10:24:51;;;;;;;8.77;3.25;;;24.10;52.40;;;;;;6099085;29;20111;-78
2022/10/26 10:27:53;;;;;;;9.35;2.58;;;24.20;51.80;;;;;;6087885;29;20361;-78
2022/10/26 10:30:58;;;;;;;14.25;3.22;;;24.40;51.60;;;;;;6111619;29;20111;-77
2022/10/26 10:33:59;;;;;;;8.85;2.92;;;24.50;51.30;;;;;;6103153;29;20044;-76
2022/10/26 10:37:01;;;;;;;17.13;4.00;;;24.70;50.90;;;;;;6086939;29;20446;-77
2022/10/26 10:40:12;;;;;;;15.70;2.97;;;24.90;50.40;;;;;;6099087;29;20047;-79
2022/10/26 10:43:14;;;;;;;7.07;2.88;;;25.10;49.70;;;;;;6101428;29;20104;-77
2022/10/26 10:46:20;;;;;;;8.45;3.15;;;25.30;49.10;;;;;;6102518;29;20577;-77
2022/10/26 10:49:26;;;;;;;8.20;2.90;;;25.50;48.50;;;;;;6089628;29;20038;-77
2022/10/26 10:52:32;;;;;;;11.85;3.08;;;25.70;48.10;;;;;;6106669;29;20442;-76
2022/10/26 10:55:35;;;;;;;10.55;2.75;;;25.80;47.30;;;;;;6102554;29;20128;-77
2022/10/26 10:58:56;;;;;;;9.07;2.60;;;26.00;47.00;;;;;;6101230;29;20055;-77
2022/10/26 11:02:05;;;;;;;11.43;3.15;;;26.30;46.60;;;;;;6100820;29;20050;-77
2022/10/26 11:05:25;;;;;;;5.50;2.30;;;26.60;45.80;;;;;;6103573;29;20036;-77
2022/10/26 11:08:28;;;;;;;13.80;4.28;;;27.00;45.00;;;;;;6100750;29;20039;-76
2022/10/26 11:11:57;;;;;;;8.80;3.38;;;27.50;43.80;;;;;;6102020;29;20036;-77
2022/10/26 11:15:13;;;;;;;13.40;4.88;;;28.00;42.70;;;;;;6113828;29;20518;-77
2022/10/26 11:18:24;;;;;;;8.77;2.88;;;28.40;42.10;;;;;;6115889;29;20120;-77
2022/10/26 11:21:29;;;;;;;8.05;2.85;;;28.80;41.10;;;;;;6095990;29;20040;-77
2022/10/26 11:24:39;;;;;;;7.85;2.60;;;29.10;40.60;;;;;;6107967;29;20040;-78
2022/10/26 11:27:50;;;;;;;6.40;2.25;;;29.40;40.20;;;;;;6094657;29;20056;-77
2022/10/26 11:30:58;;;;;;;8.23;2.58;;;29.70;39.20;;;;;;6098736;29;20040;-78
2022/10/26 11:34:15;;;;;;;;;;;29.90;38.60;;;;;;6103705;29;20052;-76
2022/10/26 11:37:27;;;;;;;11.52;2.65;;;30.00;38.20;;;;;;6109379;29;20257;-78
2022/10/26 11:40:33;;;;;;;7.28;2.42;;;30.20;38.30;;;;;;6099917;29;22924;-78
2022/10/26 11:43:49;;;;;;;17.45;2.45;;;30.30;38.80;;;;;;6115734;29;20442;-78
2022/10/26 11:47:00;;;;;;;9.52;2.33;;;30.50;38.40;;;;;;6110838;29;20043;-79
2022/10/26 11:50:18;;;;;;;10.32;2.42;;;30.80;38.10;;;;;;6095508;29;20039;-78
2022/10/26 11:53:39;;;;;;;;;;;31.10;37.30;;;;;;6111109;29;20079;-76
2022/10/26 11:56:47;;;;;;;10.30;2.00;;;31.50;36.30;;;;;;6101035;29;19958;-77
2022/10/26 11:59:50;;;;;;;;;;;31.80;35.50;;;;;;6090756;29;20047;-77
2022/10/26 12:03:06;;;;;;;9.68;2.53;;;31.80;35.10;;;;;;6097892;29;19923;-78
2022/10/26 12:06:07;;;;;;;9.15;2.60;;;31.80;35.10;;;;;;6113754;29;20129;-77
2022/10/26 12:09:18;;;;;;;6.25;2.20;;;31.70;35.80;;;;;;6090175;29;20056;-77
2022/10/26 12:12:34;;;;;;;12.65;2.60;;;31.70;34.80;;;;;;6097439;29;20065;-78
2022/10/26 12:15:40;;;;;;;9.48;2.30;;;31.90;34.90;;;;;;6096543;29;20471;-79
2022/10/26 12:18:51;;;;;;;5.45;2.00;;;32.10;34.10;;;;;;6108502;29;20080;-79
2022/10/26 12:21:53;;;;;;;4.50;1.92;;;31.70;34.00;;;;;;6101683;29;20082;-78
2022/10/26 12:25:32;;;;;;;11.80;2.78;;;31.10;33.90;;;;;;6117126;29;20051;-78
2022/10/26 12:28:36;;;;;;;;;;;30.40;34.80;;;;;;5991104;29;20049;-78
2022/10/26 12:31:37;;;;;;;10.30;2.35;;;29.80;35.60;;;;;;6022248;29;19916;-77
2022/10/26 12:34:38;;;;;;;12.07;2.10;;;29.30;36.40;;;;;;6012383;29;20030;-77
2022/10/26 12:37:39;;;;;;;10.88;2.05;;;28.90;37.00;;;;;;6021411;29;20070;-77
2022/10/26 12:40:42;;;;;;;10.40;2.53;;;28.40;37.70;;;;;;6007458;29;20476;-75
2022/10/26 12:43:43;;;;;;;5.63;2.63;;;28.10;38.40;;;;;;6004065;29;20034;-76
2022/10/26 12:46:44;;;;;;;9.63;2.50;;;27.80;39.10;;;;;;6002398;29;20372;-78
2022/10/26 12:50:06;;;;;;;13.05;2.67;;;27.50;40.50;;;;;;6019173;29;20041;-78
2022/10/26 12:53:13;;;;;;;4.38;2.08;;;27.20;40.60;;;;;;6002917;29;20136;-76
2022/10/26 12:56:19;;;;;;;14.20;2.78;;;27.10;41.00;;;;;;6005057;29;20151;-76
2022/10/26 12:59:44;;;;;;;9.02;2.22;;;26.90;41.30;;;;;;6076059;29;20032;-76
2022/10/26 13:03:18;;;;;;;5.65;1.80;;;26.80;41.70;;;;;;6094421;29;20054;-77
2022/10/26 13:06:34;;;;;;;8.55;2.08;;;26.70;42.00;;;;;;6093303;29;20350;-77
2022/10/26 13:09:36;;;;;;;13.18;2.40;;;26.70;42.20;;;;;;6098076;29;20046;-77
2022/10/26 13:12:58;;;;;;;9.82;2.70;;;26.60;42.10;;;;;;6093150;29;20047;-76
2022/10/26 13:16:01;;;;;;;9.20;2.33;;;26.50;42.30;;;;;;6093401;29;20047;-76
2022/10/26 13:19:02;;;;;;;5.25;2.33;;;26.50;42.40;;;;;;6097826;29;20080;-76
2022/10/26 13:22:04;;;;;;;10.77;2.63;;;26.40;42.40;;;;;;6092116;29;20048;-77
2022/10/26 13:25:17;;;;;;;6.28;2.42;;;26.50;42.60;;;;;;6081294;29;20044;-78
2022/10/26 13:28:36;;;;;;;11.10;2.53;;;26.40;42.60;;;;;;6095576;29;20040;-77
2022/10/26 13:31:40;;;;;;;8.70;2.30;;;26.40;42.60;;;;;;6094020;29;20036;-77
2022/10/26 13:34:42;;;;;;;10.48;2.13;;;26.30;42.60;;;;;;6087143;29;20063;-76
2022/10/26 13:37:49;;;;;;;9.40;2.38;;;26.30;42.60;;;;;;6105900;29;20042;-78
2022/10/26 13:40:58;;;;;;;14.18;2.75;;;26.30;42.50;;;;;;6099032;29;20361;-76
2022/10/26 13:44:04;;;;;;;13.38;3.15;;;26.30;42.40;;;;;;6086013;29;20333;-77
2022/10/26 13:47:23;;;;;;;11.48;2.70;;;26.30;42.40;;;;;;6075600;29;20054;-78
2022/10/26 13:50:39;;;;;;;10.18;2.75;;;26.30;42.40;;;;;;6095207;29;20393;-77
2022/10/26 13:54:00;;;;;;;7.93;2.72;;;26.30;42.40;;;;;;6094120;29;20358;-77
2022/10/26 13:57:12;;;;;;;11.27;2.80;;;26.20;42.50;;;;;;6091278;29;20518;-77
2022/10/26 14:00:21;;;;;;;16.15;2.80;;;26.20;42.50;;;;;;6090835;29;20039;-77
2022/10/26 14:03:25;;;;;;;21.75;3.95;;;26.20;42.50;;;;;;6104295;29;20072;-77
2022/10/26 14:06:37;;;;;;;11.48;3.10;;;26.10;42.50;;;;;;6092832;29;20379;-77
2022/10/26 14:09:38;;;;;;;13.52;3.10;;;26.20;42.70;;;;;;6111654;29;20107;-77
2022/10/26 14:12:39;;;;;;;15.25;3.13;;;26.20;42.80;;;;;;6098797;29;20066;-77
2022/10/26 14:15:43;;;;;;;14.25;3.05;;;26.20;42.90;;;;;;6104226;29;20036;-77
2022/10/26 14:18:45;;;;;;;14.20;2.63;;;26.20;43.10;;;;;;6085800;29;20130;-76
2022/10/26 14:21:48;;;;;;;13.45;2.95;;;26.10;43.20;;;;;;6087219;29;20051;-77
2022/10/26 14:24:54;;;;;;;12.82;2.80;;;26.10;43.40;;;;;;6107251;29;20415;-76
2022/10/26 14:27:55;;;;;;;16.13;3.08;;;26.10;43.50;;;;;;6118210;29;20067;-77
2022/10/26 14:31:19;;;;;;;17.48;3.28;;;26.10;43.60;;;;;;6096945;29;20119;-77
2022/10/26 14:34:20;;;;;;;16.63;2.60;;;26.10;43.60;;;;;;6096438;29;20425;-77
2022/10/26 14:37:48;;;;;;;9.50;2.45;;;26.10;43.70;;;;;;6100835;29;20043;-77
2022/10/26 14:40:51;;;;;;;13.15;2.75;;;26.00;43.70;;;;;;6093742;29;20044;-77
2022/10/26 14:43:54;;;;;;;15.13;2.50;;;26.00;43.80;;;;;;6088603;29;20047;-77
2022/10/26 14:46:55;;;;;;;11.38;2.55;;;26.00;43.80;;;;;;6090097;29;20518;-77
2022/10/26 14:49:58;;;;;;;13.60;2.47;;;26.00;43.90;;;;;;6103399;29;20043;-78
2022/10/26 14:53:00;;;;;;;12.65;2.47;;;26.00;44.00;;;;;;6097934;29;20040;-78
2022/10/26 14:56:03;;;;;;;9.30;2.30;;;25.90;44.00;;;;;;6101278;29;20037;-78
2022/10/26 14:59:18;;;;;;;13.68;2.50;;;25.90;44.10;;;;;;6100092;29;20051;-78
2022/10/26 15:02:20;;;;;;;16.50;2.65;;;25.90;44.80;;;;;;6089600;29;20216;-77
2022/10/26 15:05:31;;;;;;;13.88;3.05;;;25.80;44.30;;;;;;6099044;29;20060;-77
2022/10/26 15:08:54;;;;;;;19.08;3.10;;;25.80;44.40;;;;;;6090276;29;20039;-77
2022/10/26 15:11:56;;;;;;;9.40;3.35;;;25.70;44.60;;;;;;6098336;29;20497;-77
2022/10/26 15:15:12;;;;;;;13.30;4.05;;;25.70;44.60;;;;;;6095737;29;20350;-77
2022/10/26 15:18:34;;;;;;;9.10;2.53;;;25.70;44.80;;;;;;6101522;29;20383;-77
2022/10/26 15:21:38;;;;;;;12.98;3.50;;;25.60;44.90;;;;;;6102621;29;20040;-77
2022/10/26 15:24:39;;;;;;;16.08;4.05;;;25.60;45.00;;;;;;6103654;29;20062;-77
2022/10/26 15:27:40;;;;;;;14.98;3.42;;;25.60;45.10;;;;;;6097251;29;20430;-77
2022/10/26 15:30:58;;;;;;;23.52;4.05;;;25.50;45.20;;;;;;6103334;29;20036;-77
2022/10/26 15:34:02;;;;;;;22.87;4.57;;;25.50;45.50;;;;;;6102393;29;20123;-76
2022/10/26 15:37:04;;;;;;;17.92;5.20;;;25.40;45.50;;;;;;6103258;29;20035;-77
2022/10/26 15:40:06;;;;;;;17.60;3.40;;;25.40;45.60;;;;;;6092172;29;20063;-77
2022/10/26 15:43:10;;;;;;;16.17;4.88;;;25.30;45.70;;;;;;6102376;29;20048;-77
2022/10/26 15:46:11;;;;;;;10.05;3.65;;;25.30;46.10;;;;;;6098354;29;20518;-78
2022/10/26 15:49:19;;;;;;;15.93;2.75;;;25.20;46.20;;;;;;6091212;29;20028;-77
2022/10/26 15:52:20;;;;;;;13.98;3.05;;;25.10;46.40;;;;;;6102240;29;20127;-76
2022/10/26 15:55:21;;;;;;;9.93;2.95;;;25.10;46.60;;;;;;6099761;29;20020;-77
2022/10/26 15:58:22;;;;;;;10.65;3.08;;;25.00;46.70;;;;;;6096969;29;20032;-76
2022/10/26 16:01:26;;;;;;;12.23;3.38;;;25.00;46.90;;;;;;6101475;29;20393;-76
2022/10/26 16:04:26;;;;;;;13.73;3.30;;;24.90;47.20;;;;;;6095539;29;20357;-76
2022/10/26 16:07:27;;;;;;;16.63;3.92;;;24.90;47.20;;;;;;6115687;29;20035;-76